createdAt,value
2018-11-06T00:00:07.933Z,8.79
2018-11-06T00:01:08.091Z,8.70
2018-11-06T00:02:08.254Z,8.48
2018-11-06T00:03:08.436Z,8.64
2018-11-06T00:04:08.583Z,8.64
2018-11-06T00:05:08.750Z,8.71
2018-11-06T00:06:08.929Z,8.67
2018-11-06T00:07:09.104Z,8.58
2018-11-06T00:08:09.292Z,8.58
2018-11-06T00:09:09.485Z,8.46
2018-11-06T00:10:09.599Z,8.44
2018-11-06T00:11:09.776Z,8.31
2018-11-06T00:12:09.951Z,8.26
2018-11-06T00:13:10.134Z,8.38
2018-11-06T00:14:10.286Z,8.38
2018-11-06T00:15:10.466Z,8.42
2018-11-06T00:16:10.635Z,8.38
2018-11-06T00:17:10.797Z,8.46
2018-11-06T00:18:10.964Z,8.52
2018-11-06T00:19:11.113Z,8.64
2018-11-06T00:20:11.279Z,8.66
2018-11-06T00:21:11.439Z,8.70
2018-11-06T00:22:11.619Z,8.78
2018-11-06T00:23:11.764Z,8.85
2018-11-06T00:24:11.971Z,8.87
2018-11-06T00:25:12.133Z,8.88
2018-11-06T00:26:12.304Z,8.79
2018-11-06T00:27:12.480Z,8.85
2018-11-06T00:28:12.644Z,8.85
2018-11-06T00:29:12.825Z,8.88
2018-11-06T00:30:13.012Z,8.92
2018-11-06T00:31:13.164Z,8.87
2018-11-06T00:32:13.335Z,8.92
2018-11-06T00:33:13.497Z,8.94
2018-11-06T00:34:13.783Z,9.00
2018-11-06T00:35:13.841Z,9.06
2018-11-06T00:36:14.013Z,9.02
2018-11-06T00:37:14.197Z,8.94
2018-11-06T00:38:14.359Z,8.89
2018-11-06T00:39:14.517Z,8.81
2018-11-06T00:40:14.683Z,8.79
2018-11-06T00:41:14.849Z,8.78
2018-11-06T00:42:15.028Z,8.79
2018-11-06T00:43:15.220Z,8.64
2018-11-06T00:44:15.375Z,8.76
2018-11-06T00:45:15.537Z,8.78
2018-11-06T00:46:15.714Z,8.84
2018-11-06T00:47:15.896Z,8.91
2018-11-06T00:48:16.047Z,8.81
2018-11-06T00:49:16.223Z,8.88
2018-11-06T00:50:16.400Z,8.89
2018-11-06T00:51:16.562Z,8.92
2018-11-06T00:52:16.741Z,8.99
2018-11-06T00:53:16.915Z,9.03
2018-11-06T00:54:17.087Z,8.91
2018-11-06T00:55:17.262Z,8.91
2018-11-06T00:56:17.434Z,9.03
2018-11-06T00:57:17.611Z,8.99
2018-11-06T00:58:17.787Z,9.00
2018-11-06T00:59:17.962Z,8.89
2018-11-06T01:00:18.131Z,8.99
2018-11-06T01:01:18.306Z,9.03
2018-11-06T01:02:18.480Z,9.06
2018-11-06T01:03:18.654Z,9.11
2018-11-06T01:04:18.817Z,9.13
2018-11-06T01:05:18.987Z,8.92
2018-11-06T01:06:19.153Z,8.92
2018-11-06T01:07:19.316Z,8.91
2018-11-06T01:08:19.483Z,8.82
2018-11-06T01:09:19.653Z,8.60
2018-11-06T01:10:19.834Z,8.53
2018-11-06T01:11:19.998Z,8.66
2018-11-06T01:12:20.164Z,8.63
2018-11-06T01:13:20.331Z,8.63
2018-11-06T01:14:20.507Z,8.67
2018-11-06T01:15:20.677Z,8.79
2018-11-06T01:16:20.852Z,8.91
2018-11-06T01:17:21.002Z,8.85
2018-11-06T01:18:21.194Z,8.92
2018-11-06T01:19:21.367Z,8.82
2018-11-06T01:20:21.557Z,8.97
2018-11-06T01:21:21.704Z,8.97
2018-11-06T01:22:21.863Z,8.97
2018-11-06T01:23:22.018Z,8.66
2018-11-06T01:24:22.203Z,8.41
2018-11-06T01:25:22.379Z,8.53
2018-11-06T01:26:22.546Z,8.69
2018-11-06T01:27:22.721Z,8.63
2018-11-06T01:28:22.902Z,8.74
2018-11-06T01:29:23.072Z,8.78
2018-11-06T01:30:23.249Z,8.78
2018-11-06T01:31:23.423Z,8.67
2018-11-06T01:32:23.602Z,8.63
2018-11-06T01:33:23.775Z,8.63
2018-11-06T01:34:23.937Z,8.46
2018-11-06T01:35:24.104Z,8.34
2018-11-06T01:36:24.258Z,8.26
2018-11-06T01:37:24.423Z,8.33
2018-11-06T01:38:24.579Z,8.37
2018-11-06T01:39:24.765Z,8.28
2018-11-06T01:40:24.939Z,8.28
2018-11-06T01:41:25.092Z,8.31
2018-11-06T01:42:25.270Z,8.30
2018-11-06T01:43:25.433Z,8.34
2018-11-06T01:44:25.595Z,8.23
2018-11-06T01:45:25.798Z,8.10
2018-11-06T01:46:25.956Z,8.08
2018-11-06T01:47:26.119Z,8.09
2018-11-06T01:48:26.289Z,8.24
2018-11-06T01:49:26.465Z,8.12
2018-11-06T01:50:26.650Z,8.09
2018-11-06T01:51:26.812Z,8.12
2018-11-06T01:52:26.985Z,8.09
2018-11-06T01:53:27.180Z,7.80
2018-11-06T01:54:27.331Z,7.93
2018-11-06T01:55:27.515Z,7.90
2018-11-06T01:56:27.677Z,8.01
2018-11-06T01:57:27.853Z,8.10
2018-11-06T01:58:28.025Z,8.15
2018-11-06T01:59:28.199Z,8.08
2018-11-06T02:00:28.371Z,8.05
2018-11-06T02:01:28.548Z,8.08
2018-11-06T02:02:28.726Z,8.13
2018-11-06T02:03:28.895Z,7.94
2018-11-06T02:04:29.062Z,7.82
2018-11-06T02:05:29.220Z,7.60
2018-11-06T02:06:29.403Z,7.53
2018-11-06T02:07:29.550Z,7.63
2018-11-06T02:08:29.726Z,7.53
2018-11-06T02:09:29.895Z,7.60
2018-11-06T02:10:30.063Z,7.67
2018-11-06T02:11:30.235Z,7.70
2018-11-06T02:12:30.393Z,7.80
2018-11-06T02:13:30.571Z,7.73
2018-11-06T02:14:30.734Z,7.73
2018-11-06T02:15:30.919Z,7.77
2018-11-06T02:16:31.091Z,7.79
2018-11-06T02:17:31.262Z,7.88
2018-11-06T02:18:31.434Z,7.93
2018-11-06T02:19:31.599Z,7.95
2018-11-06T02:20:31.773Z,7.88
2018-11-06T02:21:31.950Z,7.73
2018-11-06T02:22:32.128Z,7.63
2018-11-06T02:23:32.295Z,7.66
2018-11-06T02:24:32.458Z,7.67
2018-11-06T02:25:32.626Z,7.75
2018-11-06T02:26:32.797Z,7.67
2018-11-06T02:27:33.003Z,7.72
2018-11-06T02:28:33.129Z,7.58
2018-11-06T02:29:33.301Z,7.51
2018-11-06T02:30:33.476Z,7.60
2018-11-06T02:31:33.634Z,7.54
2018-11-06T02:32:33.925Z,7.48
2018-11-06T02:33:33.968Z,7.60
2018-11-06T02:34:34.141Z,7.57
2018-11-06T02:35:34.312Z,7.66
2018-11-06T02:36:34.495Z,7.72
2018-11-06T02:37:34.661Z,7.69
2018-11-06T02:38:34.832Z,7.87
2018-11-06T02:39:34.998Z,7.93
2018-11-06T02:40:35.169Z,7.94
2018-11-06T02:41:35.340Z,7.90
2018-11-06T02:42:35.511Z,7.93
2018-11-06T02:43:35.683Z,7.76
2018-11-06T02:44:35.843Z,7.69
2018-11-06T02:45:36.013Z,7.77
2018-11-06T02:46:36.170Z,7.72
2018-11-06T02:47:36.339Z,7.60
2018-11-06T02:48:36.518Z,7.50
2018-11-06T02:49:36.696Z,7.51
2018-11-06T02:50:36.852Z,7.31
2018-11-06T02:51:37.011Z,7.11
2018-11-06T02:52:37.184Z,7.15
2018-11-06T02:53:37.377Z,7.31
2018-11-06T02:54:37.542Z,7.38
2018-11-06T02:55:37.748Z,7.28
2018-11-06T02:56:37.891Z,7.31
2018-11-06T02:57:38.059Z,7.20
2018-11-06T02:58:38.226Z,7.05
2018-11-06T02:59:38.401Z,7.23
2018-11-06T03:00:38.578Z,7.18
2018-11-06T03:01:38.745Z,7.28
2018-11-06T03:02:38.909Z,7.29
2018-11-06T03:03:39.135Z,7.38
2018-11-06T03:04:39.265Z,7.32
2018-11-06T03:05:39.444Z,7.36
2018-11-06T03:06:39.618Z,7.36
2018-11-06T03:07:39.795Z,7.31
2018-11-06T03:08:39.963Z,7.14
2018-11-06T03:09:40.143Z,7.02
2018-11-06T03:10:40.321Z,7.14
2018-11-06T03:11:40.495Z,7.28
2018-11-06T03:12:40.663Z,7.18
2018-11-06T03:13:40.836Z,7.31
2018-11-06T03:14:41.009Z,7.33
2018-11-06T03:15:41.184Z,7.38
2018-11-06T03:16:41.427Z,7.43
2018-11-06T03:17:41.536Z,7.32
2018-11-06T03:18:41.705Z,7.39
2018-11-06T03:19:41.884Z,7.24
2018-11-06T03:20:42.049Z,7.31
2018-11-06T03:21:42.221Z,7.40
2018-11-06T03:22:42.400Z,7.36
2018-11-06T03:23:42.572Z,7.48
2018-11-06T03:24:42.750Z,7.57
2018-11-06T03:25:42.916Z,7.51
2018-11-06T03:26:43.090Z,7.60
2018-11-06T03:27:43.257Z,7.53
2018-11-06T03:28:43.431Z,7.56
2018-11-06T03:29:43.606Z,7.47
2018-11-06T03:30:43.777Z,7.54
2018-11-06T03:31:43.952Z,7.45
2018-11-06T03:32:44.127Z,7.43
2018-11-06T03:33:44.298Z,7.36
2018-11-06T03:34:44.473Z,7.40
2018-11-06T03:35:44.647Z,7.56
2018-11-06T03:36:44.821Z,7.50
2018-11-06T03:37:44.990Z,7.56
2018-11-06T03:38:45.240Z,7.75
2018-11-06T03:39:45.342Z,7.77
2018-11-06T03:40:45.515Z,7.69
2018-11-06T03:41:45.687Z,7.61
2018-11-06T03:42:45.868Z,7.56
2018-11-06T03:43:46.043Z,7.57
2018-11-06T03:44:46.210Z,7.60
2018-11-06T03:45:46.375Z,7.56
2018-11-06T03:46:46.546Z,7.67
2018-11-06T03:47:46.737Z,7.73
2018-11-06T03:48:46.906Z,7.77
2018-11-06T03:49:47.070Z,7.79
2018-11-06T03:50:47.240Z,7.79
2018-11-06T03:51:47.413Z,7.77
2018-11-06T03:52:47.586Z,7.97
2018-11-06T03:53:47.768Z,7.90
2018-11-06T03:54:47.935Z,7.87
2018-11-06T03:55:48.118Z,7.79
2018-11-06T03:56:48.285Z,7.80
2018-11-06T03:57:48.461Z,7.83
2018-11-06T03:58:48.636Z,7.79
2018-11-06T03:59:48.806Z,7.73
2018-11-06T04:00:48.979Z,7.72
2018-11-06T04:01:49.154Z,7.76
2018-11-06T04:02:49.330Z,7.73
2018-11-06T04:03:49.502Z,7.76
2018-11-06T04:04:49.672Z,7.76
2018-11-06T04:05:49.844Z,7.88
2018-11-06T04:06:50.022Z,7.72
2018-11-06T04:07:50.194Z,7.72
2018-11-06T04:08:50.367Z,7.72
2018-11-06T04:09:50.544Z,7.77
2018-11-06T04:10:50.715Z,7.88
2018-11-06T04:11:50.886Z,7.97
2018-11-06T04:12:51.072Z,7.88
2018-11-06T04:13:51.272Z,7.97
2018-11-06T04:14:51.409Z,8.05
2018-11-06T04:15:51.586Z,7.90
2018-11-06T04:16:51.766Z,8.05
2018-11-06T04:17:51.927Z,7.97
2018-11-06T04:18:52.085Z,7.94
2018-11-06T04:19:52.270Z,7.93
2018-11-06T04:20:52.454Z,7.77
2018-11-06T04:21:52.619Z,7.87
2018-11-06T04:22:52.788Z,7.80
2018-11-06T04:23:52.954Z,7.83
2018-11-06T04:24:53.130Z,7.76
2018-11-06T04:25:53.298Z,7.50
2018-11-06T04:26:53.472Z,7.43
2018-11-06T04:27:53.644Z,7.29
2018-11-06T04:28:53.819Z,7.43
2018-11-06T04:29:53.984Z,7.36
2018-11-06T04:30:54.156Z,7.32
2018-11-06T04:31:54.326Z,7.45
2018-11-06T04:32:54.502Z,7.40
2018-11-06T04:33:54.672Z,7.63
2018-11-06T04:34:54.843Z,7.61
2018-11-06T04:35:55.020Z,7.67
2018-11-06T04:36:55.194Z,7.60
2018-11-06T04:37:55.370Z,7.67
2018-11-06T04:38:55.542Z,7.61
2018-11-06T04:39:55.717Z,7.51
2018-11-06T04:40:55.888Z,7.56
2018-11-06T04:41:56.060Z,7.51
2018-11-06T04:42:56.234Z,7.45
2018-11-06T04:43:56.411Z,7.51
2018-11-06T04:44:56.585Z,7.51
2018-11-06T04:45:56.753Z,7.54
2018-11-06T04:46:56.930Z,7.57
2018-11-06T04:47:57.106Z,7.54
2018-11-06T04:48:57.275Z,7.51
2018-11-06T04:49:57.447Z,7.58
2018-11-06T04:50:57.622Z,7.53
2018-11-06T04:51:57.797Z,7.50
2018-11-06T04:52:57.972Z,7.47
2018-11-06T04:53:58.143Z,7.38
2018-11-06T04:54:58.313Z,7.35
2018-11-06T04:55:58.486Z,7.32
2018-11-06T04:56:58.668Z,7.21
2018-11-06T04:57:58.844Z,7.24
2018-11-06T04:58:59.006Z,7.03
2018-11-06T04:59:59.187Z,7.17
2018-11-06T05:00:59.352Z,7.28
2018-11-06T05:01:59.564Z,7.29
2018-11-06T05:02:59.698Z,7.25
2018-11-06T05:03:59.873Z,7.21
2018-11-06T05:05:00.051Z,7.18
2018-11-06T05:06:00.221Z,7.13
2018-11-06T05:07:00.512Z,7.21
2018-11-06T05:08:00.566Z,7.25
2018-11-06T05:09:00.749Z,7.21
2018-11-06T05:10:00.916Z,7.31
2018-11-06T05:11:01.092Z,7.21
2018-11-06T05:12:01.263Z,7.28
2018-11-06T05:13:01.445Z,7.29
2018-11-06T05:14:01.663Z,7.31
2018-11-06T05:15:01.786Z,7.29
2018-11-06T05:16:01.971Z,7.25
2018-11-06T05:17:02.152Z,7.20
2018-11-06T05:18:02.316Z,7.21
2018-11-06T05:19:02.488Z,7.28
2018-11-06T05:20:02.663Z,7.21
2018-11-06T05:21:02.829Z,7.28
2018-11-06T05:22:03.012Z,7.31
2018-11-06T05:23:03.169Z,7.24
2018-11-06T05:24:03.345Z,7.24
2018-11-06T05:25:03.512Z,7.18
2018-11-06T05:26:03.696Z,7.18
2018-11-06T05:27:03.864Z,7.15
2018-11-06T05:28:04.030Z,7.23
2018-11-06T05:29:04.201Z,7.14
2018-11-06T05:30:04.364Z,7.20
2018-11-06T05:31:04.525Z,7.10
2018-11-06T05:32:04.694Z,7.14
2018-11-06T05:33:04.914Z,7.15
2018-11-06T05:34:04.998Z,7.21
2018-11-06T05:35:05.161Z,7.07
2018-11-06T05:36:05.377Z,7.02
2018-11-06T05:37:05.512Z,7.00
2018-11-06T05:38:05.697Z,7.05
2018-11-06T05:39:06.039Z,7.11
2018-11-06T05:40:06.043Z,7.02
2018-11-06T05:41:06.278Z,7.03
2018-11-06T05:42:06.385Z,7.07
2018-11-06T05:43:06.548Z,7.13
2018-11-06T05:44:06.869Z,7.06
2018-11-06T05:45:06.874Z,6.96
2018-11-06T05:46:07.035Z,7.02
2018-11-06T05:47:07.198Z,7.05
2018-11-06T05:48:07.353Z,7.07
2018-11-06T05:49:07.554Z,7.07
2018-11-06T05:50:07.731Z,7.07
2018-11-06T05:51:07.864Z,7.07
2018-11-06T05:52:08.028Z,7.03
2018-11-06T05:53:08.307Z,7.06
2018-11-06T05:54:08.355Z,7.06
2018-11-06T05:55:08.516Z,6.96
2018-11-06T05:56:08.705Z,6.88
2018-11-06T05:57:08.874Z,6.92
2018-11-06T05:58:09.049Z,6.92
2018-11-06T05:59:09.217Z,6.79
2018-11-06T06:00:09.385Z,6.82
2018-11-06T06:01:09.577Z,6.78
2018-11-06T06:02:09.734Z,6.82
2018-11-06T06:03:09.911Z,6.93
2018-11-06T06:04:10.079Z,6.97
2018-11-06T06:05:10.243Z,7.00
2018-11-06T06:06:10.414Z,6.89
2018-11-06T06:07:10.583Z,6.87
2018-11-06T06:08:10.749Z,6.85
2018-11-06T06:09:10.926Z,6.88
2018-11-06T06:10:11.118Z,6.96
2018-11-06T06:11:11.377Z,6.99
2018-11-06T06:12:11.458Z,6.99
2018-11-06T06:14:11.817Z,7.00
2018-11-06T06:15:11.987Z,6.99
2018-11-06T06:17:12.393Z,6.87
2018-11-06T06:18:12.502Z,6.84
2018-11-06T06:19:12.666Z,6.95
2018-11-06T06:20:12.834Z,6.84
2018-11-06T06:21:13.010Z,6.84
2018-11-06T06:22:13.183Z,6.89
2018-11-06T06:23:13.359Z,6.93
2018-11-06T06:24:13.535Z,6.87
2018-11-06T06:25:13.694Z,6.85
2018-11-06T06:26:13.863Z,6.87
2018-11-06T06:27:14.035Z,6.75
2018-11-06T06:28:14.229Z,6.72
2018-11-06T06:29:14.370Z,6.75
2018-11-06T06:30:14.538Z,6.78
2018-11-06T06:31:14.708Z,6.79
2018-11-06T06:32:14.889Z,6.82
2018-11-06T06:33:15.051Z,6.84
2018-11-06T06:34:15.224Z,6.85
2018-11-06T06:35:15.495Z,6.87
2018-11-06T06:36:15.575Z,6.87
2018-11-06T06:37:15.737Z,6.89
2018-11-06T06:38:15.906Z,6.92
2018-11-06T06:39:16.078Z,6.99
2018-11-06T06:40:16.346Z,6.93
2018-11-06T06:41:16.429Z,6.85
2018-11-06T06:42:16.603Z,6.75
2018-11-06T06:43:16.773Z,6.69
2018-11-06T06:44:16.945Z,6.72
2018-11-06T06:45:17.118Z,6.70
2018-11-06T06:46:17.337Z,6.81
2018-11-06T06:47:17.465Z,6.84
2018-11-06T06:48:17.641Z,6.92
2018-11-06T06:49:17.803Z,6.82
2018-11-06T06:50:17.977Z,6.85
2018-11-06T06:51:18.155Z,6.85
2018-11-06T06:52:18.329Z,6.88
2018-11-06T06:53:18.505Z,6.93
2018-11-06T06:54:18.839Z,6.95
2018-11-06T06:55:18.909Z,6.89
2018-11-06T06:56:19.032Z,6.96
2018-11-06T06:57:19.190Z,6.89
2018-11-06T06:58:19.363Z,6.96
2018-11-06T06:59:19.537Z,6.85
2018-11-06T07:00:19.706Z,6.78
2018-11-06T07:01:19.863Z,6.79
2018-11-06T07:02:20.070Z,6.89
2018-11-06T07:03:20.234Z,6.81
2018-11-06T07:04:20.410Z,6.89
2018-11-06T07:05:20.580Z,7.03
2018-11-06T07:06:20.755Z,6.97
2018-11-06T07:07:20.937Z,7.07
2018-11-06T07:08:21.107Z,7.02
2018-11-06T07:09:21.279Z,7.02
2018-11-06T07:10:21.457Z,7.00
2018-11-06T07:11:21.632Z,7.00
2018-11-06T07:12:21.808Z,7.02
2018-11-06T07:13:21.976Z,7.06
2018-11-06T07:14:22.147Z,7.07
2018-11-06T07:15:22.342Z,7.03
2018-11-06T07:16:22.501Z,7.10
2018-11-06T07:17:22.671Z,7.18
2018-11-06T07:18:22.845Z,7.20
2018-11-06T07:19:23.013Z,7.23
2018-11-06T07:20:23.187Z,7.17
2018-11-06T07:21:23.351Z,7.00
2018-11-06T07:22:23.516Z,7.00
2018-11-06T07:23:23.676Z,7.05
2018-11-06T07:24:23.855Z,7.06
2018-11-06T07:25:24.027Z,7.03
2018-11-06T07:26:24.249Z,6.92
2018-11-06T07:27:24.422Z,6.92
2018-11-06T07:28:24.586Z,6.97
2018-11-06T07:29:24.769Z,6.81
2018-11-06T07:30:24.941Z,6.87
2018-11-06T07:31:25.145Z,6.87
2018-11-06T07:32:25.289Z,6.82
2018-11-06T07:33:25.491Z,6.89
2018-11-06T07:34:25.699Z,6.85
2018-11-06T07:35:26.005Z,6.82
2018-11-06T07:36:26.049Z,6.69
2018-11-06T07:41:27.139Z,7.06
2018-11-06T07:42:27.076Z,7.07
2018-11-06T07:46:27.744Z,7.23
2018-11-06T07:49:28.304Z,7.25
2018-11-06T07:49:32.029Z,7.25
2018-11-06T07:49:35.961Z,7.15
2018-11-06T07:52:28.912Z,7.05
2018-11-06T07:56:29.768Z,7.28
2018-11-06T08:00:33.874Z,7.38
2018-11-06T08:03:30.705Z,7.61
2018-11-06T08:04:31.609Z,7.70
2018-11-06T08:06:31.546Z,7.67
2018-11-06T08:10:33.774Z,7.54
2018-11-06T08:15:33.014Z,7.60
2018-11-06T08:17:46.306Z,7.51
2018-11-06T08:22:34.269Z,7.67
2018-11-06T08:23:34.434Z,7.67
2018-11-06T08:23:46.841Z,7.72
2018-11-06T08:24:34.623Z,7.67
2018-11-06T08:26:11.929Z,7.79
2018-11-06T08:26:47.233Z,7.82
2018-11-06T08:27:35.145Z,7.83
2018-11-06T09:00:40.794Z,9.28
2018-11-06T09:02:39.706Z,9.61
2018-11-06T09:13:26.354Z,10.34
2018-11-06T09:16:43.555Z,11.37
2018-11-06T09:19:13.902Z,11.29
2018-11-06T09:29:11.026Z,10.63
2018-11-06T09:30:11.185Z,10.79
2018-11-06T09:36:47.045Z,12.25
2018-11-06T09:37:02.058Z,12.02
2018-11-06T09:37:47.226Z,12.64
2018-11-06T09:38:02.217Z,12.04
2018-11-06T09:38:47.405Z,12.75
2018-11-06T09:39:47.587Z,12.40
2018-11-06T09:40:47.763Z,12.72
2018-11-06T09:41:47.951Z,13.33
2018-11-06T09:42:48.131Z,13.78
2018-11-06T09:43:48.309Z,14.26
2018-11-06T09:44:48.512Z,14.26
2018-11-06T09:45:48.675Z,14.08
2018-11-06T09:46:48.860Z,14.20
2018-11-06T09:47:49.042Z,14.62
2018-11-06T09:48:49.248Z,14.41
2018-11-06T09:49:49.410Z,14.65
2018-11-06T09:50:49.588Z,14.78
2018-11-06T09:51:49.781Z,14.28
2018-11-06T09:52:49.951Z,14.48
2018-11-06T09:53:50.139Z,14.70
2018-11-06T09:57:22.594Z,14.73
2018-11-06T09:58:22.775Z,14.84
2018-11-06T09:59:22.954Z,14.32
2018-11-06T10:00:23.199Z,13.86
2018-11-06T10:01:23.328Z,13.38
2018-11-06T10:02:24.146Z,13.50
2018-11-06T10:03:23.699Z,13.81
2018-11-06T10:04:23.873Z,14.15
2018-11-06T10:05:24.062Z,14.62
2018-11-06T10:06:24.397Z,14.29
2018-11-06T10:07:24.634Z,13.63
2018-11-06T10:08:24.594Z,14.05
2018-11-06T10:09:24.771Z,13.71
2018-11-06T10:10:24.956Z,13.09
2018-11-06T10:11:25.172Z,13.03
2018-11-06T10:12:25.344Z,13.92
2018-11-06T10:13:25.496Z,14.37
2018-11-06T10:14:25.666Z,14.99
2018-11-06T10:15:25.904Z,15.04
2018-11-06T10:16:26.029Z,14.99
2018-11-06T10:17:26.200Z,15.57
2018-11-06T10:18:26.377Z,15.42
2018-11-06T10:19:26.559Z,15.42
2018-11-06T10:20:26.736Z,15.90
2018-11-06T10:21:26.934Z,15.29
2018-11-06T10:22:27.095Z,15.37
2018-11-06T10:23:27.277Z,15.44
2018-11-06T10:24:27.464Z,15.57
2018-11-06T10:25:27.645Z,16.02
2018-11-06T10:26:27.832Z,16.78
2018-11-06T10:27:27.999Z,16.86
2018-11-06T10:28:28.181Z,16.15
2018-11-06T10:29:28.361Z,16.53
2018-11-06T10:30:28.542Z,16.84
2018-11-06T10:31:28.727Z,16.50
2018-11-06T10:32:28.907Z,16.29
2018-11-06T10:33:29.085Z,15.95
2018-11-06T10:34:29.269Z,16.12
2018-11-06T10:35:29.446Z,16.08
2018-11-06T10:36:29.642Z,16.41
2018-11-06T10:37:29.805Z,16.66
2018-11-06T10:38:29.997Z,16.43
2018-11-06T10:39:30.150Z,15.86
2018-11-06T10:40:30.336Z,14.23
2018-11-06T10:41:30.510Z,14.23
2018-11-06T10:42:30.689Z,14.36
2018-11-06T10:43:30.875Z,14.72
2018-11-06T10:44:31.058Z,14.89
2018-11-06T10:45:31.237Z,15.00
2018-11-06T10:46:31.419Z,15.42
2018-11-06T10:47:31.601Z,15.76
2018-11-06T10:48:31.790Z,15.98
2018-11-06T10:49:31.964Z,15.88
2018-11-06T10:50:32.143Z,15.67
2018-11-06T10:51:32.329Z,16.10
2018-11-06T10:52:32.512Z,16.42
2018-11-06T10:53:32.686Z,16.60
2018-11-06T10:54:32.874Z,16.89
2018-11-06T10:55:33.041Z,16.90
2018-11-06T10:56:33.227Z,16.71
2018-11-06T10:57:33.401Z,16.81
2018-11-06T10:58:33.589Z,16.49
2018-11-06T10:59:33.762Z,15.98
2018-11-06T11:00:33.943Z,16.05
2018-11-06T11:01:34.124Z,15.84
2018-11-06T11:02:34.306Z,16.35
2018-11-06T11:03:34.488Z,16.42
2018-11-06T11:04:34.685Z,16.46
2018-11-06T11:05:34.862Z,16.41
2018-11-06T11:06:35.044Z,16.50
2018-11-06T11:07:35.231Z,16.68
2018-11-06T11:08:35.403Z,16.69
2018-11-06T11:09:35.591Z,16.47
2018-11-06T11:10:35.771Z,16.31
2018-11-06T11:11:35.949Z,15.73
2018-11-06T11:12:36.305Z,16.16
2018-11-06T11:13:36.313Z,16.49
2018-11-06T11:14:36.497Z,16.65
2018-11-06T11:15:36.683Z,16.39
2018-11-06T11:16:36.852Z,16.50
2018-11-06T11:17:37.035Z,16.38
2018-11-06T11:18:37.227Z,16.56
2018-11-06T11:20:37.571Z,16.68
2018-11-06T11:21:37.770Z,16.84
2018-11-06T11:22:37.941Z,17.06
2018-11-06T11:23:38.118Z,17.26
2018-11-06T11:24:38.299Z,17.38
2018-11-06T11:26:38.657Z,17.38
2018-11-06T11:27:38.839Z,17.20
2018-11-06T11:28:39.020Z,17.22
2018-11-06T11:29:39.202Z,17.14
2018-11-06T11:30:39.470Z,16.74
2018-11-06T11:31:39.738Z,16.78
2018-11-06T11:32:39.821Z,16.64
2018-11-06T11:33:39.998Z,17.22
2018-11-06T11:34:40.177Z,17.67
2018-11-06T11:36:40.525Z,17.98
2018-11-06T11:37:40.740Z,18.20
2018-11-06T11:38:40.895Z,18.20
2018-11-06T11:39:41.068Z,18.18
2018-11-06T11:40:41.255Z,18.38
2018-11-06T11:41:41.429Z,18.38
2018-11-06T11:42:41.652Z,18.60
2018-11-06T11:43:41.789Z,18.89
2018-11-06T11:44:41.990Z,19.07
2018-11-06T11:45:42.202Z,19.29
2018-11-06T11:46:42.351Z,19.51
2018-11-06T11:47:42.532Z,19.48
2018-11-06T11:48:42.739Z,19.47
2018-11-06T11:49:42.895Z,18.92
2018-11-06T11:50:43.093Z,18.77
2018-11-06T11:51:43.257Z,18.63
2018-11-06T11:52:43.435Z,18.62
2018-11-06T11:53:43.611Z,18.55
2018-11-06T11:54:43.795Z,18.58
2018-11-06T11:56:44.166Z,18.33
2018-11-06T11:57:44.335Z,18.26
2018-11-06T11:58:44.515Z,17.94
2018-11-06T11:59:44.699Z,17.78
2018-11-06T12:00:44.880Z,17.85
2018-11-06T12:01:45.058Z,18.07
2018-11-06T12:02:45.263Z,18.18
2018-11-06T12:03:45.419Z,18.47
2018-11-06T12:04:45.608Z,18.70
2018-11-06T12:05:45.789Z,18.77
2018-11-06T12:06:45.965Z,19.12
2018-11-06T12:07:46.149Z,19.12
2018-11-06T12:08:46.331Z,19.62
2018-11-06T12:09:46.517Z,20.13
2018-11-06T12:10:46.699Z,20.28
2018-11-06T12:11:46.876Z,20.39
2018-11-06T12:12:47.060Z,20.77
2018-11-06T12:13:47.239Z,20.50
2018-11-06T12:14:47.424Z,20.21
2018-11-06T12:15:47.599Z,20.07
2018-11-06T12:16:47.781Z,20.22
2018-11-06T12:17:47.966Z,20.18
2018-11-06T12:18:48.153Z,20.21
2018-11-06T12:19:48.325Z,20.36
2018-11-06T12:20:48.509Z,20.72
2018-11-06T12:21:48.694Z,19.81
2018-11-06T12:22:48.874Z,19.59
2018-11-06T12:23:49.056Z,19.34
2018-11-06T12:24:49.481Z,19.19
2018-11-06T12:25:49.629Z,18.60
2018-11-06T12:26:49.598Z,18.63
2018-11-06T12:27:49.790Z,18.44
2018-11-06T12:28:49.973Z,18.58
2018-11-06T12:29:50.163Z,18.47
2018-11-06T12:30:50.338Z,18.19
2018-11-06T12:31:50.521Z,18.05
2018-11-06T12:32:50.701Z,18.20
2018-11-06T12:33:50.886Z,18.37
2018-11-06T12:34:51.071Z,18.53
2018-11-06T12:35:51.267Z,18.49
2018-11-06T12:36:51.505Z,18.40
2018-11-06T12:37:51.639Z,18.23
2018-11-06T12:38:51.814Z,18.18
2018-11-06T12:39:51.999Z,18.01
2018-11-06T12:40:52.180Z,18.00
2018-11-06T12:41:52.364Z,17.98
2018-11-06T12:42:52.600Z,18.19
2018-11-06T12:43:52.697Z,18.15
2018-11-06T12:44:52.869Z,18.07
2018-11-06T12:45:53.055Z,18.03
2018-11-06T12:46:53.259Z,18.18
2018-11-06T12:47:53.420Z,18.25
2018-11-06T12:48:53.601Z,18.13
2018-11-06T12:49:53.786Z,18.04
2018-11-06T12:50:53.969Z,17.97
2018-11-06T12:51:54.165Z,18.00
2018-11-06T12:52:54.336Z,18.10
2018-11-06T12:53:54.516Z,18.19
2018-11-06T12:54:54.711Z,18.20
2018-11-06T12:55:54.878Z,18.15
2018-11-06T12:56:55.054Z,18.11
2018-11-06T12:57:55.238Z,18.08
2018-11-06T12:58:55.420Z,18.23
2018-11-06T12:59:55.595Z,18.18
2018-11-06T13:00:55.776Z,18.23
2018-11-06T13:01:55.980Z,18.33
2018-11-06T13:02:56.158Z,18.28
2018-11-06T13:03:56.338Z,18.35
2018-11-06T13:04:56.524Z,18.44
2018-11-06T13:05:56.700Z,18.29
2018-11-06T13:06:56.878Z,18.34
2018-11-06T13:07:57.064Z,18.22
2018-11-06T13:08:57.470Z,18.31
2018-11-06T13:09:57.539Z,18.28
2018-11-06T13:10:57.663Z,18.28
2018-11-06T13:11:57.843Z,18.08
2018-11-06T13:12:58.021Z,18.11
2018-11-06T13:13:58.251Z,17.95
2018-11-06T13:14:59.321Z,17.87
2018-11-06T13:15:58.696Z,17.98
2018-11-06T13:16:58.820Z,18.00
2018-11-06T13:17:58.936Z,17.94
2018-11-06T13:18:59.116Z,18.04
2018-11-06T13:19:59.295Z,18.07
2018-11-06T13:20:59.480Z,18.01
2018-11-06T13:21:59.682Z,18.04
2018-11-06T13:22:59.841Z,17.80
2018-11-06T13:24:00.022Z,17.90
2018-11-06T13:25:00.212Z,17.92
2018-11-06T13:26:00.424Z,17.92
2018-11-06T13:27:00.576Z,17.94
2018-11-06T13:28:00.761Z,17.89
2018-11-06T13:29:00.931Z,17.92
2018-11-06T13:30:01.119Z,17.87
2018-11-06T13:31:01.298Z,17.92
2018-11-06T13:32:01.479Z,17.90
2018-11-06T13:33:01.659Z,17.71
2018-11-06T13:34:01.850Z,17.78
2018-11-06T13:35:02.019Z,17.70
2018-11-06T13:36:02.206Z,17.74
2018-11-06T13:37:02.378Z,17.63
2018-11-06T13:38:02.547Z,17.68
2018-11-06T13:39:02.748Z,17.52
2018-11-06T13:40:02.904Z,17.59
2018-11-06T13:41:03.084Z,17.57
2018-11-06T13:42:03.336Z,17.46
2018-11-06T13:43:03.543Z,17.51
2018-11-06T13:44:03.860Z,17.52
2018-11-06T13:45:04.034Z,17.46
2018-11-06T13:46:03.984Z,17.57
2018-11-06T13:47:04.166Z,17.46
2018-11-06T13:48:04.349Z,17.42
2018-11-06T13:49:04.521Z,17.38
2018-11-06T13:50:04.703Z,17.33
2018-11-06T13:51:04.878Z,17.33
2018-11-06T13:52:05.067Z,17.46
2018-11-06T13:53:05.245Z,17.63
2018-11-06T13:54:05.421Z,17.49
2018-11-06T13:55:05.605Z,17.63
2018-11-06T13:56:05.782Z,17.56
2018-11-06T13:57:05.962Z,17.46
2018-11-06T13:58:06.150Z,17.41
2018-11-06T13:59:06.311Z,17.39
2018-11-06T14:00:06.491Z,17.39
2018-11-06T14:01:06.690Z,17.31
2018-11-06T14:02:06.854Z,17.27
2018-11-06T14:03:07.032Z,17.22
2018-11-06T14:04:07.268Z,17.27
2018-11-06T14:05:07.388Z,17.29
2018-11-06T14:06:07.554Z,17.19
2018-11-06T14:07:07.746Z,17.09
2018-11-06T14:08:07.918Z,17.01
2018-11-06T14:09:08.101Z,17.09
2018-11-06T14:10:08.297Z,16.94
2018-11-06T14:11:08.451Z,17.11
2018-11-06T14:12:08.632Z,16.94
2018-11-06T14:13:08.824Z,16.86
2018-11-06T14:14:08.992Z,16.90
2018-11-06T14:15:09.173Z,16.78
2018-11-06T14:16:09.351Z,16.69
2018-11-06T14:17:09.515Z,16.61
2018-11-06T14:18:09.678Z,16.61
2018-11-06T14:19:09.859Z,16.66
2018-11-06T14:20:10.018Z,16.65
2018-11-06T14:21:10.324Z,16.65
2018-11-06T14:22:10.354Z,16.66
2018-11-06T14:23:10.528Z,16.54
2018-11-06T14:24:10.705Z,16.56
2018-11-06T14:25:10.934Z,16.54
2018-11-06T14:26:11.095Z,16.49
2018-11-06T14:27:11.433Z,16.53
2018-11-06T14:28:11.449Z,16.64
2018-11-06T14:29:11.636Z,16.60
2018-11-06T14:30:11.806Z,16.51
2018-11-06T14:31:11.991Z,16.43
2018-11-06T14:32:12.172Z,16.56
2018-11-06T14:33:12.349Z,16.47
2018-11-06T14:34:12.511Z,16.36
2018-11-06T14:35:12.687Z,16.36
2018-11-06T14:36:12.868Z,16.46
2018-11-06T14:37:13.108Z,16.41
2018-11-06T14:38:13.228Z,16.35
2018-11-06T14:39:13.430Z,16.33
2018-11-06T14:40:13.582Z,16.35
2018-11-06T14:41:13.768Z,16.46
2018-11-06T14:42:14.000Z,16.39
2018-11-06T14:43:14.122Z,16.41
2018-11-06T14:44:14.304Z,16.33
2018-11-06T14:45:14.521Z,16.47
2018-11-06T14:46:14.693Z,16.39
2018-11-06T14:47:14.879Z,16.47